createdAt,value
2019-01-05T00:00:05.332Z,20.20
2019-01-05T00:03:08.226Z,21.00
2019-01-05T00:06:02.189Z,22.00
2019-01-05T00:08:56.301Z,20.40
2019-01-05T00:11:42.745Z,21.40
2019-01-05T00:14:29.481Z,22.87
2019-01-05T00:17:35.287Z,20.30
2019-01-05T00:20:31.349Z,18.60
2019-01-05T00:23:17.081Z,20.40
2019-01-05T00:26:03.937Z,21.47
2019-01-05T00:28:51.124Z,21.17
2019-01-05T00:31:48.144Z,21.87
2019-01-05T00:34:47.806Z,21.00
2019-01-05T00:37:54.479Z,23.30
2019-01-05T00:40:38.777Z,22.13
2019-01-05T00:43:39.676Z,18.97
2019-01-05T00:46:35.339Z,21.20
2019-01-05T00:49:38.956Z,21.40
2019-01-05T00:52:46.098Z,24.83
2019-01-05T00:55:39.470Z,22.20
2019-01-05T00:58:25.909Z,22.63
2019-01-05T01:01:12.526Z,22.00
2019-01-05T01:03:59.384Z,22.67
2019-01-05T01:06:50.377Z,23.03
2019-01-05T01:09:36.825Z,25.20
2019-01-05T01:12:31.052Z,23.60
2019-01-05T01:15:25.276Z,23.10
2019-01-05T01:18:25.680Z,21.97
2019-01-05T01:21:15.845Z,24.57
2019-01-05T01:24:15.941Z,23.90
2019-01-05T01:27:02.992Z,24.60
2019-01-05T01:29:58.869Z,23.57
2019-01-05T01:32:54.566Z,25.20
2019-01-05T01:35:45.405Z,26.73
2019-01-05T01:38:59.157Z,27.63
2019-01-05T01:41:53.496Z,24.93
2019-01-05T01:44:57.768Z,26.90
2019-01-05T01:47:48.806Z,26.10
2019-01-05T01:50:37.313Z,27.53
2019-01-05T01:53:33.897Z,25.40
2019-01-05T01:56:23.237Z,24.47
2019-01-05T01:59:17.453Z,25.60
2019-01-05T02:02:04.478Z,26.27
2019-01-05T02:04:51.068Z,27.93
2019-01-05T02:07:41.490Z,26.90
2019-01-05T02:10:30.036Z,27.73
2019-01-05T02:13:35.192Z,26.13
2019-01-05T02:16:35.354Z,26.20
2019-01-05T02:19:46.146Z,27.00
2019-01-05T02:23:12.708Z,25.80
2019-01-05T02:26:52.165Z,25.60
2019-01-05T02:30:06.891Z,26.60
2019-01-05T02:33:16.854Z,27.10
2019-01-05T02:37:03.746Z,26.60
2019-01-05T02:40:29.353Z,28.10
2019-01-05T02:43:38.693Z,27.20
2019-01-05T02:47:16.798Z,26.83
2019-01-05T02:50:31.295Z,22.53
2019-01-05T02:53:58.501Z,22.73
2019-01-05T02:57:21.852Z,25.70
2019-01-05T03:00:41.265Z,21.90
2019-01-05T03:04:04.025Z,24.10
2019-01-05T03:07:45.434Z,23.13
2019-01-05T03:11:11.155Z,24.27
2019-01-05T03:15:03.867Z,23.47
2019-01-05T03:18:28.168Z,21.50
2019-01-05T03:22:01.855Z,20.07
2019-01-05T03:25:31.473Z,21.87
2019-01-05T03:28:55.011Z,21.13
2019-01-05T03:32:12.630Z,20.67
2019-01-05T03:35:36.250Z,20.03
2019-01-05T03:39:25.173Z,18.50
2019-01-05T03:42:39.358Z,19.47
2019-01-05T03:46:08.859Z,19.37
2019-01-05T03:49:26.965Z,18.10
2019-01-05T03:53:05.086Z,19.00
2019-01-05T03:56:18.729Z,19.73
2019-01-05T04:00:07.401Z,18.27
2019-01-05T04:03:40.569Z,18.50
2019-01-05T04:07:02.729Z,16.17
2019-01-05T04:10:24.178Z,18.70
2019-01-05T04:13:53.745Z,16.20
2019-01-05T04:17:10.553Z,17.73
2019-01-05T04:20:40.031Z,17.97
2019-01-05T04:24:16.165Z,16.33
2019-01-05T04:27:48.758Z,16.23
2019-01-05T04:31:30.433Z,17.67
2019-01-05T04:34:53.927Z,17.87
2019-01-05T04:38:41.422Z,16.80
2019-01-05T04:42:00.523Z,18.47
2019-01-05T04:45:45.919Z,19.30
2019-01-05T04:49:24.128Z,18.60
2019-01-05T04:52:47.376Z,18.30
2019-01-05T04:56:35.834Z,19.00
2019-01-05T05:00:14.674Z,18.67
2019-01-05T05:03:34.935Z,19.67
2019-01-05T05:07:07.949Z,17.63
2019-01-05T05:10:57.882Z,19.27
2019-01-05T05:14:24.909Z,18.97
2019-01-05T05:17:50.767Z,18.20
2019-01-05T05:21:43.662Z,19.03
2019-01-05T05:25:24.609Z,18.67
2019-01-05T05:32:25.648Z,18.60
2019-01-05T05:36:03.822Z,18.20
2019-01-05T05:39:21.400Z,16.50
2019-01-05T05:42:51.947Z,16.30
2019-01-05T05:46:01.541Z,20.10
2019-01-05T05:49:33.713Z,17.00
2019-01-05T05:53:17.717Z,16.60
2019-01-05T05:56:42.196Z,15.20
2019-01-05T06:00:13.021Z,17.67
2019-01-05T06:04:00.248Z,17.10
2019-01-05T06:07:37.164Z,17.37
2019-01-05T06:11:12.394Z,17.87
2019-01-05T06:15:06.505Z,18.53
2019-01-05T06:18:38.627Z,16.07
2019-01-05T06:21:59.729Z,17.30
2019-01-05T06:25:14.824Z,17.60
2019-01-05T06:28:45.425Z,19.40
2019-01-05T06:32:07.492Z,17.70
2019-01-05T06:35:33.660Z,18.20
2019-01-05T06:39:00.693Z,16.40
2019-01-05T06:42:33.125Z,18.70
2019-01-05T06:46:35.024Z,16.33
2019-01-05T06:49:58.969Z,19.77
2019-01-05T06:53:04.722Z,17.67
2019-01-05T06:56:46.332Z,18.00
2019-01-05T07:00:05.858Z,15.27
2019-01-05T07:03:22.209Z,16.07
2019-01-05T07:06:51.356Z,13.37
2019-01-05T07:10:08.850Z,13.90
2019-01-05T07:13:44.636Z,14.30
2019-01-05T07:17:20.009Z,34.57
2019-01-05T07:20:57.622Z,55.40
2019-01-05T07:24:24.033Z,26.80
2019-01-05T07:27:50.025Z,27.90
2019-01-05T07:31:22.329Z,14.63
2019-01-05T07:34:45.697Z,11.13
2019-01-05T07:38:04.487Z,11.70
2019-01-05T07:41:43.253Z,9.27
2019-01-05T07:45:09.194Z,10.90
2019-01-05T07:48:46.361Z,9.40
2019-01-05T07:52:12.924Z,9.70
2019-01-05T07:55:45.492Z,9.27
2019-01-05T07:59:09.837Z,9.37
2019-01-05T08:02:31.613Z,14.27
2019-01-05T08:05:54.155Z,10.87
2019-01-05T08:09:24.893Z,10.37
2019-01-05T08:13:03.629Z,11.83
2019-01-05T08:16:29.084Z,8.60
2019-01-05T08:19:57.353Z,7.63
2019-01-05T08:23:23.684Z,6.57
2019-01-05T08:26:59.341Z,5.40
2019-01-05T08:30:26.147Z,35.67
2019-01-05T08:33:55.769Z,19.67
2019-01-05T08:37:28.392Z,12.70
2019-01-05T08:40:42.435Z,13.73
2019-01-05T08:44:20.906Z,159.03
2019-01-05T08:48:06.305Z,7.40
2019-01-05T08:51:45.926Z,7.00
2019-01-05T08:55:09.853Z,11.90
2019-01-05T08:58:26.341Z,13.37
2019-01-05T09:02:04.658Z,13.00
2019-01-05T09:05:29.090Z,10.03
2019-01-05T09:09:07.673Z,11.97
2019-01-05T09:12:24.954Z,12.87
2019-01-05T09:16:14.033Z,9.57
2019-01-05T09:19:40.408Z,7.67
2019-01-05T09:23:01.541Z,7.10
2019-01-05T09:26:38.673Z,4.63
2019-01-05T09:30:09.880Z,6.47
2019-01-05T09:33:26.144Z,4.37
2019-01-05T09:36:52.713Z,4.70
2019-01-05T09:40:09.993Z,5.33
2019-01-05T09:43:50.104Z,6.90
2019-01-05T09:47:17.353Z,3.10
2019-01-05T09:50:45.310Z,3.13
2019-01-05T09:54:33.694Z,3.07
2019-01-05T09:58:04.333Z,3.30
2019-01-05T10:01:21.178Z,4.83
2019-01-05T10:04:42.640Z,3.20
2019-01-05T10:08:08.585Z,3.53
2019-01-05T10:11:24.122Z,2.70
2019-01-05T10:14:45.553Z,3.03
2019-01-05T10:18:06.849Z,2.60
2019-01-05T10:21:40.893Z,4.30
2019-01-05T10:25:05.490Z,2.80
2019-01-05T10:28:41.613Z,2.80
2019-01-05T10:32:15.337Z,1.50
2019-01-05T10:35:27.732Z,2.00
2019-01-05T10:39:22.777Z,3.73
2019-01-05T10:42:59.037Z,3.60
2019-01-05T10:46:39.248Z,2.77
2019-01-05T10:50:14.533Z,6.00
2019-01-05T10:54:01.770Z,8.50
2019-01-05T10:57:05.039Z,3.70
2019-01-05T11:00:37.645Z,5.63
2019-01-05T11:03:57.881Z,4.70
2019-01-05T11:07:27.078Z,3.50
2019-01-05T11:11:06.895Z,11.13
2019-01-05T11:14:39.645Z,6.20
2019-01-05T11:18:07.097Z,3.90
2019-01-05T11:21:33.104Z,3.57
2019-01-05T11:24:56.400Z,2.03
2019-01-05T11:28:25.547Z,3.83
2019-01-05T11:31:35.198Z,4.37
2019-01-05T11:34:57.904Z,3.00
2019-01-05T11:38:41.636Z,5.10
2019-01-05T11:42:28.538Z,4.77
2019-01-05T11:45:43.247Z,4.20
2019-01-05T11:49:07.077Z,4.70
2019-01-05T11:52:33.325Z,2.87
2019-01-05T11:55:49.065Z,3.80
2019-01-05T11:59:13.559Z,2.67
2019-01-05T12:02:42.385Z,2.80
2019-01-05T12:06:13.420Z,2.70
2019-01-05T12:09:46.666Z,2.23
2019-01-05T12:13:11.975Z,1.70
2019-01-05T12:16:40.932Z,1.97
2019-01-05T12:19:52.337Z,2.80
2019-01-05T12:23:15.626Z,6.30
2019-01-05T12:26:57.001Z,2.77
2019-01-05T12:30:32.089Z,2.93
2019-01-05T12:34:14.533Z,4.03
2019-01-05T12:37:37.478Z,2.63
2019-01-05T12:40:54.983Z,2.63
2019-01-05T12:44:24.886Z,5.03
2019-01-05T12:47:54.641Z,2.57
2019-01-05T12:51:31.598Z,2.40
2019-01-05T12:55:02.305Z,3.70
2019-01-05T12:58:39.289Z,5.73
2019-01-05T13:01:53.932Z,8.03
2019-01-05T13:05:21.433Z,3.17
2019-01-05T13:08:50.657Z,2.57
2019-01-05T13:12:44.363Z,3.03
2019-01-05T13:16:09.989Z,4.07
2019-01-05T13:19:44.842Z,3.63
2019-01-05T13:23:02.680Z,2.90
2019-01-05T13:26:53.747Z,9.20
2019-01-05T13:30:15.831Z,8.70
2019-01-05T13:33:48.880Z,11.83
2019-01-05T13:37:24.988Z,7.10
2019-01-05T13:41:03.658Z,6.50
2019-01-05T13:44:37.758Z,8.93
2019-01-05T13:48:11.089Z,9.87
2019-01-05T13:51:33.025Z,16.37
2019-01-05T13:54:33.061Z,16.70
2019-01-05T13:57:16.334Z,12.00
2019-01-05T14:00:10.303Z,10.20
2019-01-05T14:02:56.929Z,15.67
2019-01-05T14:05:43.929Z,17.30
2019-01-05T14:08:30.554Z,10.90
2019-01-05T14:11:18.546Z,14.30
2019-01-05T14:14:15.742Z,10.47
2019-01-05T14:17:07.656Z,11.87
2019-01-05T14:20:13.547Z,11.57
2019-01-05T14:23:18.164Z,8.87
2019-01-05T14:26:06.169Z,10.60
2019-01-05T14:28:54.113Z,10.50
2019-01-05T14:32:00.306Z,8.80
2019-01-05T14:34:48.330Z,12.43
2019-01-05T14:37:39.118Z,12.27
2019-01-05T14:40:30.465Z,9.83
2019-01-05T14:43:36.465Z,14.70
2019-01-05T14:46:17.219Z,10.50
2019-01-05T14:49:02.345Z,7.90
2019-01-05T14:51:50.362Z,10.20
2019-01-05T14:54:38.270Z,10.53
2019-01-05T14:57:32.312Z,10.90
2019-01-05T15:00:18.782Z,11.30
2019-01-05T15:03:05.682Z,8.37
2019-01-05T15:06:02.762Z,8.07
2019-01-05T15:08:50.689Z,10.13
2019-01-05T15:11:45.573Z,9.40
2019-01-05T15:14:39.751Z,11.53
2019-01-05T15:17:42.965Z,9.53
2019-01-05T15:20:29.878Z,10.67
2019-01-05T15:23:16.226Z,9.30
2019-01-05T15:26:00.826Z,9.77
2019-01-05T15:28:47.253Z,9.30
2019-01-05T15:31:31.305Z,11.43
2019-01-05T15:34:28.517Z,10.43
2019-01-05T15:37:19.344Z,10.47
2019-01-05T15:40:06.151Z,11.77
2019-01-05T15:42:52.828Z,12.73
2019-01-05T15:45:39.517Z,10.43
2019-01-05T15:48:37.734Z,10.57
2019-01-05T15:51:40.965Z,10.07
2019-01-05T15:54:47.369Z,9.73
2019-01-05T15:57:40.991Z,10.20
2019-01-05T16:00:33.172Z,21.10
2019-01-05T16:03:19.593Z,15.50
2019-01-05T16:06:18.405Z,16.50
2019-01-05T16:09:06.381Z,13.33
2019-01-05T16:11:55.509Z,27.17
2019-01-05T16:15:01.625Z,89.27
2019-01-05T16:17:48.341Z,132.07
2019-01-05T16:20:35.006Z,206.27
2019-01-05T16:23:21.684Z,147.27
2019-01-05T16:26:15.833Z,28.10
2019-01-05T16:29:06.617Z,20.77
2019-01-05T16:31:54.272Z,47.07
2019-01-05T16:34:44.591Z,10.23
2019-01-05T16:37:45.985Z,20.87
2019-01-05T16:40:43.286Z,9.53
2019-01-05T16:43:26.480Z,17.07
2019-01-05T16:46:09.733Z,14.90
2019-01-05T16:48:56.204Z,8.03
2019-01-05T16:51:44.178Z,18.60
2019-01-05T16:54:32.169Z,106.93
2019-01-05T16:57:15.225Z,7.70
2019-01-05T17:00:03.364Z,18.00
2019-01-05T17:03:09.384Z,8.93
2019-01-05T17:05:55.597Z,7.37
2019-01-05T17:08:42.006Z,6.37
2019-01-05T17:11:32.761Z,6.90
2019-01-05T17:14:20.749Z,5.97
2019-01-05T17:17:18.436Z,8.60
2019-01-05T17:20:05.110Z,5.37
2019-01-05T17:23:17.794Z,6.17
2019-01-05T17:26:20.542Z,5.70
2019-01-05T17:29:20.441Z,6.37
2019-01-05T17:32:18.182Z,6.60
2019-01-05T17:35:06.185Z,7.17
2019-01-05T17:37:53.017Z,7.20
2019-01-05T17:40:39.887Z,7.80
2019-01-05T17:43:26.338Z,6.20
2019-01-05T17:46:14.720Z,4.90
2019-01-05T17:49:10.781Z,7.20
2019-01-05T17:52:16.770Z,8.93
2019-01-05T17:55:03.652Z,7.10
2019-01-05T17:57:50.391Z,9.40
2019-01-05T18:00:37.885Z,10.07
2019-01-05T18:03:24.514Z,9.07
2019-01-05T18:06:24.617Z,7.97
2019-01-05T18:09:10.957Z,7.93
2019-01-05T18:12:04.925Z,10.33
2019-01-05T18:15:03.034Z,10.50
2019-01-05T18:18:06.348Z,9.63
2019-01-05T18:21:01.678Z,10.50
2019-01-05T18:24:02.791Z,10.27
2019-01-05T18:26:44.434Z,10.50
2019-01-05T18:29:41.668Z,11.00
2019-01-05T18:32:29.555Z,11.20
2019-01-05T18:35:12.201Z,11.93
2019-01-05T18:38:15.352Z,10.67
2019-01-05T18:41:10.505Z,9.77
2019-01-05T18:43:52.030Z,9.40
2019-01-05T18:46:37.959Z,10.20
2019-01-05T18:49:15.175Z,8.10
2019-01-05T18:51:59.030Z,8.20
2019-01-05T18:54:45.496Z,10.23
2019-01-05T18:57:31.697Z,9.63
2019-01-05T19:00:14.022Z,10.87
2019-01-05T19:02:58.974Z,8.47
2019-01-05T19:05:50.606Z,9.10
2019-01-05T19:08:37.389Z,7.60
2019-01-05T19:11:24.190Z,8.77
2019-01-05T19:14:05.640Z,9.47
2019-01-05T19:16:59.709Z,10.47
2019-01-05T19:19:46.154Z,10.40
2019-01-05T19:22:32.777Z,10.00
2019-01-05T19:25:23.881Z,9.50
2019-01-05T19:28:17.767Z,11.17
2019-01-05T19:31:04.435Z,11.77
2019-01-05T19:34:04.639Z,18.00
2019-01-05T19:36:55.671Z,11.73
2019-01-05T19:39:51.153Z,14.50
2019-01-05T19:42:53.122Z,26.00
2019-01-05T19:45:47.080Z,15.97
2019-01-05T19:48:33.792Z,14.47
2019-01-05T19:51:21.773Z,11.47
2019-01-05T19:54:21.987Z,12.33
2019-01-05T19:57:08.685Z,12.27
2019-01-05T19:59:56.706Z,14.53
2019-01-05T20:02:44.469Z,10.70
2019-01-05T20:05:33.150Z,14.97
2019-01-05T20:08:26.402Z,13.80
2019-01-05T20:11:12.799Z,14.53
2019-01-05T20:14:10.025Z,15.70
2019-01-05T20:16:58.439Z,15.77
2019-01-05T20:19:47.910Z,16.20
2019-01-05T20:22:26.131Z,17.77
2019-01-05T20:25:16.405Z,17.10
2019-01-05T20:28:10.563Z,18.07
2019-01-05T20:30:57.140Z,14.53
2019-01-05T20:33:57.935Z,12.80
2019-01-05T20:36:45.254Z,16.97
2019-01-05T20:39:48.830Z,15.50
2019-01-05T20:42:45.702Z,9.50
2019-01-05T20:45:25.205Z,12.17
2019-01-05T20:48:15.885Z,12.47
2019-01-05T20:51:02.974Z,14.70
2019-01-05T20:54:02.550Z,11.80
2019-01-05T20:56:47.823Z,14.20
2019-01-05T20:59:45.761Z,13.63
2019-01-05T21:02:32.457Z,16.43
2019-01-05T21:05:29.634Z,13.33
2019-01-05T21:08:23.765Z,13.23
2019-01-05T21:11:16.802Z,13.07
2019-01-05T21:14:16.915Z,12.87
2019-01-05T21:17:04.602Z,12.37
2019-01-05T21:20:05.281Z,11.37
2019-01-05T21:22:51.735Z,11.50
2019-01-05T21:25:40.635Z,13.93
2019-01-05T21:28:28.710Z,15.03
2019-01-05T21:31:34.701Z,13.00
2019-01-05T21:34:24.395Z,11.27
2019-01-05T21:37:11.005Z,12.73
2019-01-05T21:39:59.055Z,11.87
2019-01-05T21:42:45.533Z,11.50
2019-01-05T21:45:33.847Z,13.10
2019-01-05T21:48:20.697Z,14.50
2019-01-05T21:51:24.257Z,11.60
2019-01-05T21:54:23.377Z,10.80
2019-01-05T21:57:09.724Z,11.50
2019-01-05T21:59:56.644Z,16.40
2019-01-05T22:02:37.163Z,12.03
2019-01-05T22:05:23.832Z,13.80
2019-01-05T22:08:27.067Z,14.37
2019-01-05T22:11:27.317Z,14.03
2019-01-05T22:14:18.142Z,13.07
2019-01-05T22:17:06.086Z,16.27
2019-01-05T22:19:51.348Z,16.90
2019-01-05T22:22:47.618Z,13.40
2019-01-05T22:25:33.837Z,14.70
2019-01-05T22:28:18.346Z,13.40
2019-01-05T22:31:24.309Z,13.27
2019-01-05T22:34:18.017Z,13.60
2019-01-05T22:37:04.205Z,14.27
2019-01-05T22:39:45.654Z,11.53
2019-01-05T22:42:40.737Z,11.43
2019-01-05T22:45:23.325Z,11.10
2019-01-05T22:48:29.625Z,12.73
2019-01-05T22:51:22.625Z,12.83
2019-01-05T22:54:09.125Z,10.27
2019-01-05T22:56:55.819Z,12.47
2019-01-05T22:59:52.808Z,11.87
2019-01-05T23:02:36.063Z,11.60
2019-01-05T23:05:24.167Z,12.10
2019-01-05T23:08:09.549Z,10.27
2019-01-05T23:11:00.550Z,13.40
2019-01-05T23:13:47.590Z,12.90
2019-01-05T23:16:41.658Z,11.90
2019-01-05T23:19:33.301Z,11.30
2019-01-05T23:22:36.194Z,11.43
2019-01-05T23:25:27.737Z,11.67
2019-01-05T23:28:14.368Z,10.50
2019-01-05T23:30:54.853Z,10.87
2019-01-05T23:34:01.097Z,10.57
2019-01-05T23:36:51.857Z,11.10
2019-01-05T23:39:38.297Z,10.70
2019-01-05T23:42:26.358Z,8.70
2019-01-05T23:45:20.601Z,10.57
2019-01-05T23:48:16.577Z,10.10
2019-01-05T23:51:02.934Z,9.07
2019-01-05T23:54:09.113Z,9.53
2019-01-05T23:56:55.538Z,10.53
2019-01-05T23:59:45.665Z,11.20
